createdAt,value
2017-05-13T00:01:02.505Z,0
2017-05-13T00:02:12.720Z,0
2017-05-13T00:03:23.000Z,0
2017-05-13T00:04:33.285Z,0
2017-05-13T00:05:43.596Z,0
2017-05-13T00:06:53.916Z,0
2017-05-13T00:08:04.463Z,0
2017-05-13T00:09:14.750Z,0
2017-05-13T00:10:25.064Z,0
2017-05-13T00:11:35.345Z,0
2017-05-13T00:12:45.635Z,0
2017-05-13T00:13:56.216Z,0
2017-05-13T00:15:06.496Z,0
2017-05-13T00:16:16.465Z,0
2017-05-13T00:17:26.754Z,0
2017-05-13T00:18:36.728Z,0
2017-05-13T00:19:46.963Z,0
2017-05-13T00:20:57.251Z,0
2017-05-13T00:22:07.526Z,0
2017-05-13T00:23:17.816Z,0
2017-05-13T00:24:28.099Z,0
2017-05-13T00:25:38.631Z,0
2017-05-13T00:26:48.911Z,0
2017-05-13T00:27:59.197Z,0
2017-05-13T00:29:09.570Z,0
2017-05-13T00:30:19.851Z,0
2017-05-13T00:31:30.378Z,0
2017-05-13T00:32:40.663Z,0
2017-05-13T00:33:50.948Z,0
2017-05-13T00:35:01.332Z,0
2017-05-13T00:36:11.619Z,0
2017-05-13T00:37:22.145Z,0
2017-05-13T00:38:32.440Z,0
2017-05-13T00:39:42.412Z,0
2017-05-13T00:40:52.428Z,0
2017-05-13T00:42:02.394Z,0
2017-05-13T00:43:12.610Z,0
2017-05-13T00:44:22.893Z,0
2017-05-13T00:45:33.175Z,0
2017-05-13T00:46:43.158Z,0
2017-05-13T00:47:53.457Z,0
2017-05-13T00:49:03.365Z,0
2017-05-13T00:50:13.651Z,0
2017-05-13T00:51:23.939Z,0
2017-05-13T00:52:34.211Z,0
2017-05-13T00:53:44.507Z,0
2017-05-13T00:54:55.047Z,0
2017-05-13T00:56:05.015Z,0
2017-05-13T00:57:15.303Z,0
2017-05-13T00:58:25.586Z,0
2017-05-13T00:59:35.261Z,0
2017-05-13T01:00:45.818Z,0
2017-05-13T01:01:56.161Z,0
2017-05-13T01:03:06.465Z,0
2017-05-13T01:04:16.435Z,0
2017-05-13T01:05:26.714Z,0
2017-05-13T01:06:37.274Z,0
2017-05-13T01:07:47.564Z,0
2017-05-13T01:08:57.859Z,0
2017-05-13T01:10:08.142Z,0
2017-05-13T01:11:18.415Z,0
2017-05-13T01:12:28.958Z,0
2017-05-13T01:13:39.253Z,0
2017-05-13T01:14:49.534Z,0
2017-05-13T01:15:59.810Z,0
2017-05-13T01:17:10.091Z,0
2017-05-13T01:18:20.628Z,0
2017-05-13T01:19:30.912Z,0
2017-05-13T01:20:41.201Z,0
2017-05-13T01:21:51.535Z,0
2017-05-13T01:23:01.859Z,0
2017-05-13T01:24:12.389Z,0
2017-05-13T01:25:22.051Z,0
2017-05-13T01:26:32.031Z,0
2017-05-13T01:27:41.704Z,0
2017-05-13T01:28:52.106Z,0
2017-05-13T01:30:02.635Z,0
2017-05-13T01:31:11.998Z,0
2017-05-13T01:32:22.280Z,0
2017-05-13T01:33:32.578Z,0
2017-05-13T01:34:42.561Z,0
2017-05-13T01:35:53.134Z,0
2017-05-13T01:37:03.110Z,0
2017-05-13T01:38:13.397Z,0
2017-05-13T01:39:23.673Z,0
2017-05-13T01:40:33.965Z,0
2017-05-13T01:41:44.501Z,0
2017-05-13T01:42:54.843Z,0
2017-05-13T01:44:05.126Z,0
2017-05-13T01:45:15.410Z,0
2017-05-13T01:46:25.688Z,0
2017-05-13T01:47:36.232Z,0
2017-05-13T01:48:46.515Z,0
2017-05-13T01:49:56.798Z,0
2017-05-13T01:51:06.770Z,0
2017-05-13T01:52:17.048Z,0
2017-05-13T01:53:26.957Z,0
2017-05-13T01:54:37.252Z,0
2017-05-13T01:55:47.531Z,0
2017-05-13T01:56:57.813Z,0
2017-05-13T01:58:07.783Z,0
2017-05-13T01:59:17.706Z,0
2017-05-13T02:00:27.991Z,0
2017-05-13T02:01:38.269Z,0
2017-05-13T02:02:48.584Z,0
2017-05-13T02:03:58.561Z,0
2017-05-13T02:05:09.094Z,0
2017-05-13T02:06:19.374Z,0
2017-05-13T02:07:29.655Z,0
2017-05-13T02:08:39.933Z,0
2017-05-13T02:09:50.214Z,0
2017-05-13T02:11:00.427Z,0
2017-05-13T02:12:10.396Z,0
2017-05-13T02:13:20.680Z,0
2017-05-13T02:14:30.344Z,0
2017-05-13T02:15:40.618Z,0
2017-05-13T02:16:51.169Z,0
2017-05-13T02:18:01.459Z,0
2017-05-13T02:19:11.739Z,0
2017-05-13T02:20:21.400Z,0
2017-05-13T02:21:31.371Z,0
2017-05-13T02:22:41.636Z,0
2017-05-13T02:23:51.923Z,0
2017-05-13T02:25:02.204Z,0
2017-05-13T02:26:12.181Z,0
2017-05-13T02:27:22.146Z,0
2017-05-13T02:28:32.679Z,0
2017-05-13T02:29:42.952Z,0
2017-05-13T02:30:52.930Z,0
2017-05-13T02:32:03.216Z,0
2017-05-13T02:33:13.489Z,0
2017-05-13T02:34:24.013Z,0
2017-05-13T02:35:33.988Z,0
2017-05-13T02:36:44.276Z,0
2017-05-13T02:37:54.564Z,0
2017-05-13T02:39:04.851Z,0
2017-05-13T02:40:15.377Z,0
2017-05-13T02:41:25.661Z,0
2017-05-13T02:42:35.942Z,0
2017-05-13T02:43:46.227Z,0
2017-05-13T02:44:56.510Z,0
2017-05-13T02:46:07.037Z,0
2017-05-13T02:47:17.326Z,0
2017-05-13T02:48:27.289Z,0
2017-05-13T02:49:37.628Z,0
2017-05-13T02:50:47.596Z,0
2017-05-13T02:51:57.802Z,0
2017-05-13T02:53:07.765Z,0
2017-05-13T02:54:18.056Z,0
2017-05-13T02:55:28.341Z,0
2017-05-13T02:56:38.616Z,0
2017-05-13T02:57:48.843Z,0
2017-05-13T02:58:59.128Z,0
2017-05-13T03:00:09.109Z,0
2017-05-13T03:01:19.079Z,0
2017-05-13T03:02:29.360Z,0
2017-05-13T03:03:39.269Z,0
2017-05-13T03:04:49.613Z,0
2017-05-13T03:05:59.894Z,0
2017-05-13T03:07:10.177Z,0
2017-05-13T03:08:20.471Z,0
2017-05-13T03:09:31.045Z,0
2017-05-13T03:10:41.329Z,0
2017-05-13T03:11:51.613Z,0
2017-05-13T03:13:01.896Z,0
2017-05-13T03:14:11.563Z,0
2017-05-13T03:15:22.093Z,0
2017-05-13T03:16:32.381Z,0
2017-05-13T03:17:42.089Z,0
2017-05-13T03:18:52.059Z,0
2017-05-13T03:20:02.031Z,0
2017-05-13T03:21:12.259Z,0
2017-05-13T03:22:22.542Z,0
2017-05-13T03:23:32.816Z,0
2017-05-13T03:24:42.791Z,0
2017-05-13T03:25:53.079Z,0
2017-05-13T03:27:03.041Z,0
2017-05-13T03:28:13.364Z,0
2017-05-13T03:29:23.647Z,0
2017-05-13T03:30:33.925Z,0
2017-05-13T03:31:43.896Z,0
2017-05-13T03:32:54.126Z,0
2017-05-13T03:34:04.416Z,0
2017-05-13T03:35:14.703Z,0
2017-05-13T03:36:24.669Z,0
2017-05-13T03:37:34.950Z,0
2017-05-13T03:38:45.482Z,0
2017-05-13T03:39:55.456Z,0
2017-05-13T03:41:05.734Z,0
2017-05-13T03:42:15.713Z,0
2017-05-13T03:43:26.002Z,0
2017-05-13T03:44:36.590Z,0
2017-05-13T03:45:46.588Z,0
2017-05-13T03:46:56.573Z,0
2017-05-13T03:48:06.558Z,0
2017-05-13T03:49:16.835Z,0
2017-05-13T03:50:27.371Z,4
2017-05-13T03:51:37.657Z,4
2017-05-13T03:52:47.625Z,4
2017-05-13T03:53:57.907Z,4
2017-05-13T03:55:08.232Z,4
2017-05-13T03:56:18.763Z,4
2017-05-13T03:57:29.043Z,4
2017-05-13T03:58:39.329Z,0
2017-05-13T03:59:49.605Z,0
2017-05-13T04:00:59.567Z,0
2017-05-13T04:02:10.099Z,0
2017-05-13T04:03:20.063Z,4
2017-05-13T04:04:30.038Z,4
2017-05-13T04:05:40.319Z,4
2017-05-13T04:06:50.596Z,4
2017-05-13T04:08:00.815Z,4
2017-05-13T04:09:11.097Z,0
2017-05-13T04:10:21.376Z,0
2017-05-13T04:11:31.339Z,0
2017-05-13T04:12:41.617Z,4
2017-05-13T04:13:52.152Z,4
2017-05-13T04:15:02.427Z,4
2017-05-13T04:16:12.720Z,4
2017-05-13T04:17:22.701Z,4
2017-05-13T04:18:32.672Z,4
2017-05-13T04:19:43.211Z,4
2017-05-13T04:20:53.490Z,8
2017-05-13T04:22:03.773Z,4
2017-05-13T04:23:13.749Z,4
2017-05-13T04:24:24.031Z,4
2017-05-13T04:25:34.553Z,4
2017-05-13T04:26:44.835Z,4
2017-05-13T04:27:54.817Z,4
2017-05-13T04:29:05.102Z,8
2017-05-13T04:30:15.072Z,8
2017-05-13T04:31:25.600Z,8
2017-05-13T04:32:35.881Z,8
2017-05-13T04:33:46.153Z,8
2017-05-13T04:34:56.440Z,8
2017-05-13T04:36:06.714Z,4
2017-05-13T04:37:16.937Z,4
2017-05-13T04:38:27.212Z,4
2017-05-13T04:39:36.568Z,4
2017-05-13T04:40:46.877Z,4
2017-05-13T04:41:56.850Z,4
2017-05-13T04:43:07.381Z,4
2017-05-13T04:44:17.358Z,4
2017-05-13T04:45:27.636Z,4
2017-05-13T04:46:37.919Z,4
2017-05-13T04:47:48.198Z,8
2017-05-13T04:48:58.413Z,8
2017-05-13T04:50:08.372Z,4
2017-05-13T04:51:18.338Z,4
2017-05-13T04:52:28.612Z,8
2017-05-13T04:53:38.887Z,8
2017-05-13T04:54:49.428Z,4
2017-05-13T04:55:59.085Z,8
2017-05-13T04:57:09.422Z,8
2017-05-13T04:58:19.393Z,4
2017-05-13T04:59:29.667Z,8
2017-05-13T05:00:39.271Z,8
2017-05-13T05:01:49.247Z,8
2017-05-13T05:02:59.217Z,8
2017-05-13T05:04:09.496Z,8
2017-05-13T05:05:19.465Z,8
2017-05-13T05:06:29.367Z,8
2017-05-13T05:07:39.661Z,12
2017-05-13T05:08:49.942Z,12
2017-05-13T05:10:00.287Z,8
2017-05-13T05:11:10.578Z,8
2017-05-13T05:12:21.116Z,8
2017-05-13T05:13:31.396Z,8
2017-05-13T05:14:41.372Z,8
2017-05-13T05:15:51.345Z,8
2017-05-13T05:17:01.631Z,8
2017-05-13T05:18:12.166Z,8
2017-05-13T05:19:22.447Z,8
2017-05-13T05:20:32.413Z,8
2017-05-13T05:21:42.397Z,8
2017-05-13T05:22:52.373Z,8
2017-05-13T05:24:02.598Z,8
2017-05-13T05:25:12.881Z,8
2017-05-13T05:26:23.169Z,8
2017-05-13T05:27:33.140Z,8
2017-05-13T05:28:43.421Z,8
2017-05-13T05:29:53.643Z,8
2017-05-13T05:31:03.928Z,8
2017-05-13T05:32:13.891Z,8
2017-05-13T05:33:24.187Z,8
2017-05-13T05:34:34.151Z,8
2017-05-13T05:35:44.737Z,8
2017-05-13T05:36:54.718Z,8
2017-05-13T05:38:04.696Z,8
2017-05-13T05:39:14.972Z,12
2017-05-13T05:40:24.629Z,12
2017-05-13T05:41:35.162Z,12
2017-05-13T05:42:45.469Z,8
2017-05-13T05:43:55.451Z,8
2017-05-13T05:45:05.756Z,8
2017-05-13T05:46:15.103Z,8
2017-05-13T05:47:25.633Z,8
2017-05-13T05:48:35.915Z,8
2017-05-13T05:49:46.197Z,8
2017-05-13T05:50:56.480Z,12
2017-05-13T05:52:05.833Z,12
2017-05-13T05:53:16.365Z,12
2017-05-13T05:54:26.645Z,12
2017-05-13T05:55:36.614Z,12
2017-05-13T05:56:46.906Z,12
2017-05-13T05:57:57.184Z,12
2017-05-13T05:59:07.722Z,12
2017-05-13T06:00:17.693Z,12
2017-05-13T06:01:27.985Z,12
2017-05-13T06:02:38.269Z,12
2017-05-13T06:03:48.545Z,12
2017-05-13T06:04:59.083Z,12
2017-05-13T06:06:09.364Z,12
2017-05-13T06:07:19.367Z,12
2017-05-13T06:08:29.658Z,12
2017-05-13T06:09:39.637Z,12
2017-05-13T06:10:49.861Z,12
2017-05-13T06:11:59.516Z,12
2017-05-13T06:13:09.835Z,16
2017-05-13T06:14:20.120Z,16
2017-05-13T06:15:30.400Z,16
2017-05-13T06:16:40.935Z,16
2017-05-13T06:17:51.214Z,20
2017-05-13T06:19:01.503Z,16
2017-05-13T06:20:11.782Z,16
2017-05-13T06:21:21.757Z,16
2017-05-13T06:22:32.302Z,20
2017-05-13T06:23:42.270Z,20
2017-05-13T06:24:52.251Z,20
2017-05-13T06:26:02.550Z,16
2017-05-13T06:27:12.832Z,20
2017-05-13T06:28:23.411Z,20
2017-05-13T06:29:33.716Z,20
2017-05-13T06:30:43.998Z,20
2017-05-13T06:31:54.318Z,20
2017-05-13T06:33:04.604Z,20
2017-05-13T06:34:15.179Z,24
2017-05-13T06:35:25.173Z,20
2017-05-13T06:36:35.140Z,24
2017-05-13T06:37:45.424Z,24
2017-05-13T06:38:55.720Z,24
2017-05-13T06:40:06.270Z,24
2017-05-13T06:41:16.557Z,24
2017-05-13T06:42:25.607Z,24
2017-05-13T06:43:35.881Z,24
2017-05-13T06:44:46.175Z,24
2017-05-13T06:45:56.408Z,24
2017-05-13T06:47:06.693Z,24
2017-05-13T06:48:16.985Z,24
2017-05-13T06:49:27.285Z,24
2017-05-13T06:50:37.278Z,24
2017-05-13T06:51:47.802Z,24
2017-05-13T06:52:58.095Z,24
2017-05-13T06:54:08.379Z,24
2017-05-13T06:55:18.351Z,28
2017-05-13T06:56:28.640Z,28
2017-05-13T06:57:39.267Z,24
2017-05-13T06:58:48.946Z,24
2017-05-13T06:59:59.236Z,24
2017-05-13T07:01:09.209Z,20
2017-05-13T07:02:19.481Z,24
2017-05-13T07:03:29.395Z,24
2017-05-13T07:04:39.362Z,24
2017-05-13T07:05:49.642Z,24
2017-05-13T07:06:59.620Z,24
2017-05-13T07:08:09.903Z,20
2017-05-13T07:09:20.456Z,28
2017-05-13T07:10:30.469Z,28
2017-05-13T07:11:40.766Z,28
2017-05-13T07:12:51.065Z,28
2017-05-13T07:14:00.933Z,28
2017-05-13T07:15:11.472Z,28
2017-05-13T07:16:21.762Z,28
2017-05-13T07:17:32.036Z,28
2017-05-13T07:18:42.315Z,28
2017-05-13T07:19:52.597Z,28
2017-05-13T07:21:03.137Z,28
2017-05-13T07:22:13.108Z,28
2017-05-13T07:23:23.392Z,28
2017-05-13T07:24:33.366Z,28
2017-05-13T07:25:43.659Z,28
2017-05-13T07:26:53.888Z,28
2017-05-13T07:28:03.868Z,24
2017-05-13T07:29:13.842Z,28
2017-05-13T07:30:24.134Z,24
2017-05-13T07:31:34.425Z,24
2017-05-13T07:32:44.965Z,24
2017-05-13T07:33:55.248Z,24
2017-05-13T07:35:05.221Z,24
2017-05-13T07:36:15.199Z,20
2017-05-13T07:37:25.487Z,24
2017-05-13T07:38:36.017Z,24
2017-05-13T07:39:46.311Z,24
2017-05-13T07:40:56.638Z,24
2017-05-13T07:42:06.927Z,24
2017-05-13T07:43:17.222Z,24
2017-05-13T07:44:27.505Z,24
2017-05-13T07:45:37.788Z,24
2017-05-13T07:46:48.071Z,24
2017-05-13T07:47:58.458Z,24
2017-05-13T07:49:08.754Z,24
2017-05-13T07:50:19.305Z,24
2017-05-13T07:51:29.599Z,24
2017-05-13T07:52:39.890Z,24
2017-05-13T07:53:50.175Z,24
2017-05-13T07:55:00.152Z,24
2017-05-13T07:56:10.695Z,24
2017-05-13T07:57:20.668Z,24
2017-05-13T07:58:30.947Z,28
2017-05-13T07:59:40.944Z,28
2017-05-13T08:00:51.226Z,28
2017-05-13T08:02:01.757Z,28
2017-05-13T08:03:12.036Z,24
2017-05-13T08:04:22.002Z,24
2017-05-13T08:05:31.983Z,24
2017-05-13T08:06:41.960Z,24
2017-05-13T08:07:52.218Z,20
2017-05-13T08:09:02.239Z,20
2017-05-13T08:10:12.544Z,20
2017-05-13T08:11:22.517Z,20
2017-05-13T08:12:32.808Z,20
2017-05-13T08:13:43.027Z,20
2017-05-13T08:14:53.316Z,24
2017-05-13T08:16:03.607Z,20
2017-05-13T08:17:13.922Z,20
2017-05-13T08:18:24.217Z,20
2017-05-13T08:19:34.748Z,20
2017-05-13T08:20:45.483Z,20
2017-05-13T08:21:55.764Z,20
2017-05-13T08:23:06.054Z,20
2017-05-13T08:24:16.339Z,20
2017-05-13T08:25:26.879Z,20
2017-05-13T08:26:37.166Z,24
2017-05-13T08:27:47.457Z,24
2017-05-13T08:28:57.744Z,20
2017-05-13T08:30:08.051Z,20
2017-05-13T08:31:18.266Z,24
2017-05-13T08:32:28.237Z,24
2017-05-13T08:33:38.531Z,24
2017-05-13T08:34:48.559Z,28
2017-05-13T08:35:58.904Z,28
2017-05-13T08:37:09.441Z,28
2017-05-13T08:38:19.719Z,24
2017-05-13T08:39:29.772Z,24
2017-05-13T08:40:39.770Z,24
2017-05-13T08:41:49.785Z,24
2017-05-13T08:43:00.336Z,20
2017-05-13T08:44:10.617Z,24
2017-05-13T08:45:20.914Z,24
2017-05-13T08:46:31.208Z,28
2017-05-13T08:47:41.494Z,24
2017-05-13T08:48:52.029Z,24
2017-05-13T08:50:02.320Z,28
2017-05-13T08:51:12.602Z,28
2017-05-13T08:52:22.910Z,24
2017-05-13T08:53:33.224Z,20
2017-05-13T08:54:43.770Z,24
2017-05-13T08:55:53.744Z,20
2017-05-13T08:57:04.248Z,20
2017-05-13T08:58:14.633Z,20
2017-05-13T08:59:24.912Z,20
2017-05-13T09:00:35.444Z,20
2017-05-13T09:01:45.412Z,20
2017-05-13T09:02:55.691Z,24
2017-05-13T09:04:05.990Z,20
2017-05-13T09:05:16.265Z,20
2017-05-13T09:06:26.849Z,24
2017-05-13T09:07:36.814Z,20
2017-05-13T09:08:47.089Z,20
2017-05-13T09:09:57.056Z,20
2017-05-13T09:11:07.352Z,20
2017-05-13T09:12:17.637Z,24
2017-05-13T09:13:27.926Z,20
2017-05-13T09:14:38.226Z,24
2017-05-13T09:15:48.513Z,24
2017-05-13T09:16:58.808Z,24
2017-05-13T09:18:09.342Z,24
2017-05-13T09:19:19.633Z,24
2017-05-13T09:20:29.918Z,24
2017-05-13T09:21:40.219Z,24
2017-05-13T09:22:50.197Z,24
2017-05-13T09:24:00.780Z,24
2017-05-13T09:25:11.067Z,24
2017-05-13T09:26:21.352Z,24
2017-05-13T09:27:31.019Z,24
2017-05-13T09:28:41.314Z,24
2017-05-13T09:29:51.916Z,28
2017-05-13T09:31:01.888Z,24
2017-05-13T09:32:12.174Z,24
2017-05-13T09:33:22.454Z,28
2017-05-13T09:34:32.738Z,28
2017-05-13T09:35:43.262Z,28
2017-05-13T09:36:53.237Z,28
2017-05-13T09:38:03.538Z,28
2017-05-13T09:39:13.832Z,28
2017-05-13T09:40:24.121Z,28
2017-05-13T09:41:34.707Z,28
2017-05-13T09:42:44.729Z,28
2017-05-13T09:43:54.707Z,28
2017-05-13T09:45:04.988Z,28
2017-05-13T09:46:14.992Z,28
2017-05-13T09:47:24.900Z,28
2017-05-13T09:48:34.299Z,28
2017-05-13T09:49:44.126Z,28
2017-05-13T09:50:54.412Z,28
2017-05-13T09:52:04.696Z,28
2017-05-13T09:53:15.471Z,28
2017-05-13T09:54:25.755Z,28
2017-05-13T09:55:35.732Z,28
2017-05-13T09:56:46.055Z,28
2017-05-13T09:57:55.412Z,28
2017-05-13T09:59:05.732Z,28
2017-05-13T10:00:15.712Z,28
2017-05-13T10:01:25.686Z,28
2017-05-13T10:02:35.966Z,28
2017-05-13T10:03:45.933Z,28
2017-05-13T10:04:56.146Z,32
2017-05-13T10:06:06.438Z,28
2017-05-13T10:07:16.413Z,32
2017-05-13T10:08:26.702Z,32
2017-05-13T10:09:36.984Z,32
2017-05-13T10:10:47.521Z,32
2017-05-13T10:11:57.798Z,32
2017-05-13T10:13:08.080Z,32
2017-05-13T10:14:18.102Z,32
2017-05-13T10:15:28.070Z,32
2017-05-13T10:16:38.599Z,28
2017-05-13T10:17:48.561Z,32
2017-05-13T10:18:58.850Z,32
2017-05-13T10:20:09.191Z,28
2017-05-13T10:21:19.163Z,32
2017-05-13T10:22:29.395Z,32
2017-05-13T10:23:39.373Z,28
2017-05-13T10:24:49.690Z,32
2017-05-13T10:25:59.666Z,32
2017-05-13T10:27:09.655Z,32
2017-05-13T10:28:20.187Z,36
2017-05-13T10:29:30.478Z,32
2017-05-13T10:30:40.448Z,36
2017-05-13T10:31:50.740Z,36
2017-05-13T10:33:01.040Z,36
2017-05-13T10:34:11.588Z,36
2017-05-13T10:35:21.873Z,36
2017-05-13T10:36:31.839Z,40
2017-05-13T10:37:41.823Z,36
2017-05-13T10:38:52.121Z,36
2017-05-13T10:40:02.656Z,40
2017-05-13T10:41:12.631Z,40
2017-05-13T10:42:22.924Z,40
2017-05-13T10:43:33.215Z,40
2017-05-13T10:44:43.505Z,36
2017-05-13T10:45:54.043Z,40
2017-05-13T10:47:04.319Z,36
2017-05-13T10:48:14.606Z,36
2017-05-13T10:49:24.886Z,32
2017-05-13T10:50:35.175Z,32
2017-05-13T10:51:45.397Z,32
2017-05-13T10:52:55.678Z,32
2017-05-13T10:54:05.976Z,32
2017-05-13T10:55:16.252Z,32
2017-05-13T10:56:26.540Z,36
2017-05-13T10:57:37.077Z,36
2017-05-13T10:58:47.368Z,40
2017-05-13T10:59:57.654Z,36
2017-05-13T11:01:07.950Z,36
2017-05-13T11:02:18.244Z,36
2017-05-13T11:03:28.157Z,36
2017-05-13T11:04:38.438Z,40
2017-05-13T11:05:48.719Z,36
2017-05-13T11:06:58.389Z,40
2017-05-13T11:08:08.673Z,36
2017-05-13T11:09:19.215Z,32
2017-05-13T11:10:29.201Z,36
2017-05-13T11:11:39.497Z,36
2017-05-13T11:12:49.775Z,36
2017-05-13T11:14:00.065Z,36
2017-05-13T11:15:10.290Z,36
2017-05-13T11:16:20.581Z,40
2017-05-13T11:17:30.871Z,36
2017-05-13T11:18:41.155Z,36
2017-05-13T11:19:51.430Z,40
2017-05-13T11:21:01.655Z,40
2017-05-13T11:22:11.939Z,40
2017-05-13T11:23:22.223Z,40
2017-05-13T11:24:32.513Z,40
2017-05-13T11:25:42.941Z,40
2017-05-13T11:26:53.482Z,40
2017-05-13T11:28:03.828Z,40
2017-05-13T11:29:13.802Z,36
2017-05-13T11:30:23.778Z,36
2017-05-13T11:31:33.447Z,36
2017-05-13T11:32:44.090Z,40
2017-05-13T11:33:54.069Z,40
2017-05-13T11:35:04.351Z,40
2017-05-13T11:36:14.331Z,40
2017-05-13T11:37:24.619Z,44
2017-05-13T11:38:35.147Z,44
2017-05-13T11:39:45.427Z,48
2017-05-13T11:40:55.716Z,52
2017-05-13T11:42:06.012Z,56
2017-05-13T11:43:15.984Z,56
2017-05-13T11:44:26.265Z,60
2017-05-13T11:45:36.548Z,64
2017-05-13T11:46:46.857Z,64
2017-05-13T11:47:57.177Z,68
2017-05-13T11:49:07.459Z,68
2017-05-13T11:50:18.000Z,72
2017-05-13T11:51:28.350Z,72
2017-05-13T11:52:38.636Z,68
2017-05-13T11:53:48.616Z,72
2017-05-13T11:54:58.584Z,68
2017-05-13T11:56:09.143Z,64
2017-05-13T11:57:19.475Z,64
2017-05-13T11:58:29.755Z,68
2017-05-13T11:59:40.034Z,68
2017-05-13T12:00:50.104Z,68
2017-05-13T12:02:00.642Z,72
2017-05-13T12:03:10.320Z,72
2017-05-13T12:04:20.603Z,72
2017-05-13T12:05:30.893Z,72
2017-05-13T12:06:41.186Z,72
2017-05-13T12:07:51.412Z,68
2017-05-13T12:09:01.700Z,76
2017-05-13T12:10:11.990Z,84
2017-05-13T12:11:22.277Z,80
2017-05-13T12:12:32.254Z,76
2017-05-13T12:13:42.475Z,72
2017-05-13T12:14:52.774Z,76
2017-05-13T12:16:03.091Z,84
2017-05-13T12:17:13.076Z,80
2017-05-13T12:18:23.362Z,88
2017-05-13T12:19:33.894Z,76
2017-05-13T12:20:44.173Z,68
2017-05-13T12:21:54.462Z,68
2017-05-13T12:23:04.440Z,72
2017-05-13T12:24:14.410Z,72
2017-05-13T12:25:24.939Z,76
2017-05-13T12:26:35.288Z,76
2017-05-13T12:27:45.259Z,76
2017-05-13T12:28:55.219Z,76
2017-05-13T12:30:05.201Z,68
2017-05-13T12:31:15.432Z,72
2017-05-13T12:32:25.371Z,68
2017-05-13T12:33:35.675Z,68
2017-05-13T12:34:46.000Z,64
2017-05-13T12:35:55.978Z,64
2017-05-13T12:37:06.205Z,60
2017-05-13T12:38:16.502Z,60
2017-05-13T12:39:26.477Z,56
2017-05-13T12:40:36.819Z,56
2017-05-13T12:41:47.120Z,56
2017-05-13T12:42:57.665Z,56
2017-05-13T12:44:07.944Z,52
2017-05-13T12:45:18.233Z,48
2017-05-13T12:46:28.515Z,44
2017-05-13T12:47:38.795Z,44
2017-05-13T12:48:49.339Z,44
2017-05-13T12:49:59.638Z,40
2017-05-13T12:51:09.933Z,44
2017-05-13T12:52:20.214Z,44
2017-05-13T12:53:30.500Z,44
2017-05-13T12:54:40.923Z,44
2017-05-13T12:55:51.210Z,44
2017-05-13T12:57:01.498Z,44
2017-05-13T12:58:11.168Z,44
2017-05-13T12:59:21.450Z,44
2017-05-13T13:00:31.980Z,44
2017-05-13T13:01:42.270Z,44
2017-05-13T13:02:52.566Z,44
2017-05-13T13:04:02.534Z,48
2017-05-13T13:05:12.839Z,48
2017-05-13T13:06:23.062Z,44
2017-05-13T13:07:33.030Z,44
2017-05-13T13:08:43.317Z,44
2017-05-13T13:09:53.299Z,48
2017-05-13T13:11:03.287Z,48
2017-05-13T13:12:13.827Z,48
2017-05-13T13:13:24.121Z,48
2017-05-13T13:14:34.405Z,48
2017-05-13T13:15:44.696Z,48
2017-05-13T13:16:54.985Z,48
2017-05-13T13:18:10.481Z,48
2017-05-13T13:19:20.774Z,48
2017-05-13T13:20:31.061Z,48
2017-05-13T13:21:41.359Z,48
2017-05-13T13:22:51.655Z,48
2017-05-13T13:24:02.195Z,48
2017-05-13T13:25:12.181Z,48
2017-05-13T13:26:22.481Z,52
2017-05-13T13:27:32.158Z,52
2017-05-13T13:28:42.440Z,56
2017-05-13T13:29:53.219Z,56
2017-05-13T13:31:03.187Z,56
2017-05-13T13:32:13.151Z,60
2017-05-13T13:33:22.820Z,60
2017-05-13T13:34:32.838Z,64
2017-05-13T13:35:43.073Z,64
2017-05-13T13:36:53.353Z,68
2017-05-13T13:38:03.655Z,68
2017-05-13T13:39:13.948Z,72
2017-05-13T13:40:24.250Z,72
2017-05-13T13:41:34.805Z,72
2017-05-13T13:42:45.084Z,72
2017-05-13T13:43:55.056Z,68
2017-05-13T13:45:05.343Z,68
2017-05-13T13:46:15.511Z,68
2017-05-13T13:47:25.799Z,64
2017-05-13T13:48:36.078Z,64
2017-05-13T13:49:46.381Z,64
2017-05-13T13:50:56.378Z,64
2017-05-13T13:52:06.672Z,60
2017-05-13T13:53:17.261Z,64
2017-05-13T13:54:27.239Z,64
2017-05-13T13:55:36.919Z,64
2017-05-13T13:56:46.909Z,60
2017-05-13T13:57:57.197Z,60
2017-05-13T13:59:07.464Z,60
2017-05-13T14:00:17.754Z,60
2017-05-13T14:01:27.733Z,60
2017-05-13T14:02:38.013Z,60
2017-05-13T14:03:47.984Z,56
2017-05-13T14:04:57.906Z,56
2017-05-13T14:06:08.218Z,56
2017-05-13T14:07:18.209Z,52
2017-05-13T14:08:27.574Z,52
2017-05-13T14:09:37.872Z,52
2017-05-13T14:10:48.412Z,52
2017-05-13T14:11:58.705Z,52
2017-05-13T14:13:08.677Z,56
2017-05-13T14:14:18.965Z,56
2017-05-13T14:15:29.251Z,56
2017-05-13T14:16:39.791Z,60
2017-05-13T14:17:50.069Z,60
2017-05-13T14:19:00.377Z,60
2017-05-13T14:20:10.345Z,60
2017-05-13T14:21:20.645Z,60
2017-05-13T14:22:31.186Z,56
2017-05-13T14:23:41.485Z,56
2017-05-13T14:24:51.720Z,52
2017-05-13T14:26:02.004Z,52
2017-05-13T14:27:12.284Z,52
2017-05-13T14:28:22.856Z,48
2017-05-13T14:29:33.159Z,48
2017-05-13T14:30:43.278Z,48
2017-05-13T14:31:53.250Z,48
2017-05-13T14:33:03.550Z,44
2017-05-13T14:34:14.089Z,44
2017-05-13T14:35:24.377Z,44
2017-05-13T14:36:34.676Z,40
2017-05-13T14:37:44.967Z,40
2017-05-13T14:38:54.946Z,40
2017-05-13T14:40:05.499Z,36
2017-05-13T14:41:15.787Z,40
2017-05-13T14:42:26.081Z,40
2017-05-13T14:43:36.524Z,36
2017-05-13T14:44:46.819Z,40
2017-05-13T14:45:57.051Z,40
2017-05-13T14:47:07.372Z,40
2017-05-13T14:48:17.758Z,36
2017-05-13T14:49:28.041Z,36
2017-05-13T14:50:38.329Z,36
2017-05-13T14:51:48.939Z,36
2017-05-13T14:52:59.235Z,36
2017-05-13T14:54:09.204Z,32
2017-05-13T14:55:19.502Z,32
2017-05-13T14:56:29.530Z,32
2017-05-13T14:57:40.161Z,32
2017-05-13T14:58:50.449Z,32
2017-05-13T15:00:00.430Z,32
2017-05-13T15:01:10.727Z,32
2017-05-13T15:02:21.009Z,32
2017-05-13T15:03:31.247Z,28
2017-05-13T15:04:41.539Z,28
2017-05-13T15:05:51.832Z,32
2017-05-13T15:07:02.116Z,32
2017-05-13T15:08:12.147Z,28
2017-05-13T15:09:22.361Z,32
2017-05-13T15:10:32.664Z,32
2017-05-13T15:11:42.983Z,28
2017-05-13T15:12:53.273Z,32
2017-05-13T15:14:03.242Z,28
2017-05-13T15:15:13.471Z,32
2017-05-13T15:16:23.767Z,32
2017-05-13T15:17:33.424Z,32
2017-05-13T15:18:43.708Z,32
2017-05-13T15:19:53.797Z,36
2017-05-13T15:21:04.337Z,36
2017-05-13T15:22:14.320Z,32
2017-05-13T15:23:24.605Z,36
2017-05-13T15:24:35.138Z,36
2017-05-13T15:25:44.861Z,36
2017-05-13T15:26:55.087Z,40
2017-05-13T15:28:05.376Z,36
2017-05-13T15:29:15.673Z,36
2017-05-13T15:30:25.980Z,40
2017-05-13T15:31:36.288Z,40
2017-05-13T15:32:46.830Z,40
2017-05-13T15:33:57.120Z,36
2017-05-13T15:35:07.396Z,36
2017-05-13T15:36:17.379Z,36
2017-05-13T15:37:27.357Z,40
2017-05-13T15:38:37.902Z,40
2017-05-13T15:39:48.189Z,40
2017-05-13T15:40:58.175Z,44
2017-05-13T15:42:08.141Z,44
2017-05-13T15:43:17.804Z,44
2017-05-13T15:44:28.343Z,40
2017-05-13T15:45:38.347Z,40
2017-05-13T15:46:48.629Z,40
2017-05-13T15:47:58.604Z,40
2017-05-13T15:49:07.962Z,40
2017-05-13T15:50:18.514Z,40
2017-05-13T15:51:28.802Z,36
2017-05-13T15:52:39.091Z,36
2017-05-13T15:53:48.753Z,32
2017-05-13T15:54:58.435Z,32
2017-05-13T15:56:08.965Z,32
2017-05-13T15:57:18.954Z,28
2017-05-13T15:58:28.925Z,32
2017-05-13T15:59:39.215Z,32
2017-05-13T16:00:49.902Z,28
2017-05-13T16:02:00.439Z,28
2017-05-13T16:03:10.424Z,28
2017-05-13T16:04:20.429Z,28
2017-05-13T16:05:30.765Z,28
2017-05-13T16:06:41.049Z,28
2017-05-13T16:07:51.268Z,28
2017-05-13T16:09:01.236Z,28
2017-05-13T16:10:11.271Z,28
2017-05-13T16:11:21.569Z,28
2017-05-13T16:12:31.863Z,28
2017-05-13T16:13:42.105Z,28
2017-05-13T16:14:52.398Z,24
2017-05-13T16:16:02.682Z,24
2017-05-13T16:17:12.662Z,24
2017-05-13T16:18:22.633Z,24
2017-05-13T16:19:33.222Z,24
2017-05-13T16:20:43.215Z,24
2017-05-13T16:21:53.549Z,24
2017-05-13T16:23:03.538Z,20
2017-05-13T16:24:13.832Z,24
2017-05-13T16:25:24.068Z,20
2017-05-13T16:26:34.039Z,24
2017-05-13T16:27:44.033Z,20
2017-05-13T16:28:54.592Z,20
2017-05-13T16:30:04.571Z,20
2017-05-13T16:31:15.097Z,20
2017-05-13T16:32:25.094Z,20
2017-05-13T16:33:35.384Z,20
2017-05-13T16:34:45.381Z,20
2017-05-13T16:35:55.356Z,24
2017-05-13T16:37:05.902Z,24
2017-05-13T16:38:15.887Z,24
2017-05-13T16:39:25.858Z,20
2017-05-13T16:40:36.146Z,20
2017-05-13T16:41:46.434Z,24
2017-05-13T16:42:57.036Z,20
2017-05-13T16:44:07.018Z,20
2017-05-13T16:45:16.675Z,20
2017-05-13T16:46:26.956Z,20
2017-05-13T16:47:37.258Z,20
2017-05-13T16:48:47.810Z,24
2017-05-13T16:49:58.144Z,20
2017-05-13T16:51:08.437Z,20
2017-05-13T16:52:18.433Z,20
2017-05-13T16:53:28.724Z,20
2017-05-13T16:54:38.990Z,20